sensor_id;sensor_type;location;lat;lon;timestamp;P1;durP1;ratioP1;P2;durP2;ratioP2
12302;SDS011;6214;48.012;7.862;2023-05-23T00:01:22;9.25;;;7.80;;
12302;SDS011;6214;48.012;7.862;2023-05-23T00:03:50;10.02;;;8.10;;
12302;SDS011;6214;48.012;7.862;2023-05-23T00:06:21;9.10;;;7.63;;
12302;SDS011;6214;48.012;7.862;2023-05-23T00:08:48;9.50;;;7.85;;
12302;SDS011;6214;48.012;7.862;2023-05-23T00:11:16;10.00;;;6.82;;
12302;SDS011;6214;48.012;7.862;2023-05-23T00:13:44;10.38;;;7.85;;
12302;SDS011;6214;48.012;7.862;2023-05-23T00:16:12;10.13;;;7.57;;
12302;SDS011;6214;48.012;7.862;2023-05-23T00:18:39;10.77;;;7.73;;
12302;SDS011;6214;48.012;7.862;2023-05-23T00:21:08;9.48;;;7.30;;
12302;SDS011;6214;48.012;7.862;2023-05-23T00:23:35;10.50;;;7.78;;
12302;SDS011;6214;48.012;7.862;2023-05-23T00:26:03;10.05;;;8.07;;
12302;SDS011;6214;48.012;7.862;2023-05-23T00:28:30;9.57;;;7.40;;
12302;SDS011;6214;48.012;7.862;2023-05-23T00:30:57;9.57;;;8.00;;
12302;SDS011;6214;48.012;7.862;2023-05-23T00:33:25;9.77;;;7.68;;
12302;SDS011;6214;48.012;7.862;2023-05-23T00:35:52;10.27;;;8.10;;
12302;SDS011;6214;48.012;7.862;2023-05-23T00:38:19;9.90;;;8.10;;
12302;SDS011;6214;48.012;7.862;2023-05-23T00:40:47;9.40;;;7.13;;
12302;SDS011;6214;48.012;7.862;2023-05-23T00:43:14;9.07;;;7.07;;
12302;SDS011;6214;48.012;7.862;2023-05-23T00:45:41;10.10;;;7.60;;
12302;SDS011;6214;48.012;7.862;2023-05-23T00:48:08;9.88;;;7.18;;
12302;SDS011;6214;48.012;7.862;2023-05-23T00:50:37;9.10;;;7.50;;
12302;SDS011;6214;48.012;7.862;2023-05-23T00:53:04;8.90;;;7.45;;
12302;SDS011;6214;48.012;7.862;2023-05-23T00:55:32;8.95;;;6.95;;
12302;SDS011;6214;48.012;7.862;2023-05-23T00:57:59;9.98;;;7.40;;
12302;SDS011;6214;48.012;7.862;2023-05-23T01:00:26;10.40;;;7.75;;
12302;SDS011;6214;48.012;7.862;2023-05-23T01:02:54;9.00;;;7.60;;
12302;SDS011;6214;48.012;7.862;2023-05-23T01:05:22;9.35;;;7.68;;
12302;SDS011;6214;48.012;7.862;2023-05-23T01:07:50;9.73;;;7.70;;
12302;SDS011;6214;48.012;7.862;2023-05-23T01:10:19;10.50;;;7.93;;
12302;SDS011;6214;48.012;7.862;2023-05-23T01:15:29;9.80;;;8.05;;
12302;SDS011;6214;48.012;7.862;2023-05-23T01:20:44;9.68;;;8.32;;
12302;SDS011;6214;48.012;7.862;2023-05-23T01:23:27;10.10;;;8.07;;
12302;SDS011;6214;48.012;7.862;2023-05-23T01:29:10;9.03;;;7.50;;
12302;SDS011;6214;48.012;7.862;2023-05-23T01:31:41;9.45;;;7.82;;
12302;SDS011;6214;48.012;7.862;2023-05-23T01:34:13;9.85;;;7.30;;
12302;SDS011;6214;48.012;7.862;2023-05-23T01:36:42;10.70;;;7.90;;
12302;SDS011;6214;48.012;7.862;2023-05-23T01:39:10;9.17;;;8.00;;
12302;SDS011;6214;48.012;7.862;2023-05-23T01:41:37;9.27;;;7.72;;
12302;SDS011;6214;48.012;7.862;2023-05-23T01:44:04;11.68;;;8.05;;
12302;SDS011;6214;48.012;7.862;2023-05-23T01:46:32;9.30;;;7.30;;
12302;SDS011;6214;48.012;7.862;2023-05-23T01:49:01;9.63;;;7.90;;
12302;SDS011;6214;48.012;7.862;2023-05-23T01:51:29;8.90;;;7.35;;
12302;SDS011;6214;48.012;7.862;2023-05-23T01:53:57;9.57;;;7.43;;
12302;SDS011;6214;48.012;7.862;2023-05-23T01:56:26;9.20;;;7.30;;
12302;SDS011;6214;48.012;7.862;2023-05-23T01:58:54;8.90;;;7.13;;
12302;SDS011;6214;48.012;7.862;2023-05-23T02:01:21;9.60;;;7.85;;
12302;SDS011;6214;48.012;7.862;2023-05-23T02:03:48;8.57;;;7.18;;
12302;SDS011;6214;48.012;7.862;2023-05-23T02:06:15;9.60;;;7.65;;
12302;SDS011;6214;48.012;7.862;2023-05-23T02:08:42;10.73;;;7.75;;
12302;SDS011;6214;48.012;7.862;2023-05-23T02:11:10;8.75;;;7.57;;
12302;SDS011;6214;48.012;7.862;2023-05-23T02:13:37;10.60;;;7.50;;
12302;SDS011;6214;48.012;7.862;2023-05-23T02:16:04;9.77;;;8.10;;
12302;SDS011;6214;48.012;7.862;2023-05-23T02:18:31;9.25;;;7.75;;
12302;SDS011;6214;48.012;7.862;2023-05-23T02:20:58;9.25;;;7.40;;
12302;SDS011;6214;48.012;7.862;2023-05-23T02:23:25;9.32;;;7.50;;
12302;SDS011;6214;48.012;7.862;2023-05-23T02:25:52;10.40;;;7.43;;
12302;SDS011;6214;48.012;7.862;2023-05-23T02:28:20;8.85;;;7.65;;
12302;SDS011;6214;48.012;7.862;2023-05-23T02:30:47;9.90;;;8.00;;
12302;SDS011;6214;48.012;7.862;2023-05-23T02:33:14;9.93;;;8.40;;
12302;SDS011;6214;48.012;7.862;2023-05-23T02:35:42;10.00;;;8.00;;
12302;SDS011;6214;48.012;7.862;2023-05-23T02:38:09;8.50;;;7.27;;
12302;SDS011;6214;48.012;7.862;2023-05-23T02:40:36;9.60;;;7.80;;
12302;SDS011;6214;48.012;7.862;2023-05-23T02:43:03;9.20;;;7.70;;
12302;SDS011;6214;48.012;7.862;2023-05-23T02:45:30;9.05;;;8.10;;
12302;SDS011;6214;48.012;7.862;2023-05-23T02:47:58;10.40;;;8.73;;
12302;SDS011;6214;48.012;7.862;2023-05-23T02:50:25;9.88;;;8.40;;
12302;SDS011;6214;48.012;7.862;2023-05-23T02:52:52;9.77;;;8.50;;
12302;SDS011;6214;48.012;7.862;2023-05-23T02:55:19;10.02;;;8.10;;
12302;SDS011;6214;48.012;7.862;2023-05-23T02:57:47;10.40;;;8.07;;
12302;SDS011;6214;48.012;7.862;2023-05-23T03:00:14;9.55;;;8.45;;
12302;SDS011;6214;48.012;7.862;2023-05-23T03:02:41;10.57;;;8.23;;
12302;SDS011;6214;48.012;7.862;2023-05-23T03:05:08;10.60;;;8.23;;
12302;SDS011;6214;48.012;7.862;2023-05-23T03:07:36;10.40;;;8.70;;
12302;SDS011;6214;48.012;7.862;2023-05-23T03:10:03;9.13;;;8.02;;
12302;SDS011;6214;48.012;7.862;2023-05-23T03:12:31;10.00;;;8.03;;
12302;SDS011;6214;48.012;7.862;2023-05-23T03:14:58;10.10;;;8.40;;
12302;SDS011;6214;48.012;7.862;2023-05-23T03:17:25;10.25;;;8.50;;
12302;SDS011;6214;48.012;7.862;2023-05-23T03:19:53;10.40;;;8.70;;
12302;SDS011;6214;48.012;7.862;2023-05-23T03:22:20;9.68;;;8.15;;
12302;SDS011;6214;48.012;7.862;2023-05-23T03:24:47;9.90;;;8.15;;
12302;SDS011;6214;48.012;7.862;2023-05-23T03:27:14;9.90;;;8.40;;
12302;SDS011;6214;48.012;7.862;2023-05-23T03:29:41;9.20;;;8.02;;
12302;SDS011;6214;48.012;7.862;2023-05-23T03:32:08;10.65;;;8.82;;
12302;SDS011;6214;48.012;7.862;2023-05-23T03:34:35;10.00;;;8.27;;
12302;SDS011;6214;48.012;7.862;2023-05-23T03:37:04;9.90;;;8.30;;
12302;SDS011;6214;48.012;7.862;2023-05-23T03:39:31;10.18;;;8.38;;
12302;SDS011;6214;48.012;7.862;2023-05-23T03:41:58;11.07;;;8.90;;
12302;SDS011;6214;48.012;7.862;2023-05-23T03:44:25;10.18;;;8.50;;
12302;SDS011;6214;48.012;7.862;2023-05-23T03:46:53;9.98;;;8.45;;
12302;SDS011;6214;48.012;7.862;2023-05-23T03:49:20;9.90;;;8.38;;
12302;SDS011;6214;48.012;7.862;2023-05-23T03:51:47;10.30;;;8.20;;
12302;SDS011;6214;48.012;7.862;2023-05-23T03:54:14;10.40;;;8.70;;
12302;SDS011;6214;48.012;7.862;2023-05-23T03:56:43;10.93;;;8.20;;
12302;SDS011;6214;48.012;7.862;2023-05-23T03:59:10;10.18;;;8.52;;
12302;SDS011;6214;48.012;7.862;2023-05-23T04:01:37;11.80;;;8.93;;
12302;SDS011;6214;48.012;7.862;2023-05-23T04:04:05;11.15;;;8.98;;
12302;SDS011;6214;48.012;7.862;2023-05-23T04:06:32;9.38;;;8.30;;
12302;SDS011;6214;48.012;7.862;2023-05-23T04:09:03;10.52;;;8.73;;
12302;SDS011;6214;48.012;7.862;2023-05-23T04:11:31;10.63;;;8.70;;
12302;SDS011;6214;48.012;7.862;2023-05-23T04:13:58;9.48;;;8.23;;
12302;SDS011;6214;48.012;7.862;2023-05-23T04:16:27;10.90;;;8.68;;
12302;SDS011;6214;48.012;7.862;2023-05-23T04:18:58;10.52;;;8.63;;
12302;SDS011;6214;48.012;7.862;2023-05-23T04:21:27;9.73;;;8.48;;
12302;SDS011;6214;48.012;7.862;2023-05-23T04:23:54;10.65;;;9.20;;
12302;SDS011;6214;48.012;7.862;2023-05-23T04:26:22;11.80;;;9.70;;
12302;SDS011;6214;48.012;7.862;2023-05-23T04:28:49;10.60;;;9.50;;
12302;SDS011;6214;48.012;7.862;2023-05-23T04:31:20;11.02;;;9.60;;
12302;SDS011;6214;48.012;7.862;2023-05-23T04:33:50;10.13;;;8.53;;
12302;SDS011;6214;48.012;7.862;2023-05-23T04:36:18;12.93;;;9.65;;
12302;SDS011;6214;48.012;7.862;2023-05-23T04:38:45;11.05;;;9.30;;
12302;SDS011;6214;48.012;7.862;2023-05-23T04:41:12;10.00;;;8.90;;
12302;SDS011;6214;48.012;7.862;2023-05-23T04:43:41;12.57;;;10.03;;
12302;SDS011;6214;48.012;7.862;2023-05-23T04:46:09;10.40;;;9.30;;
12302;SDS011;6214;48.012;7.862;2023-05-23T04:48:37;11.90;;;9.80;;
12302;SDS011;6214;48.012;7.862;2023-05-23T04:51:04;10.70;;;8.98;;
12302;SDS011;6214;48.012;7.862;2023-05-23T04:53:31;11.20;;;9.75;;
12302;SDS011;6214;48.012;7.862;2023-05-23T04:55:59;11.77;;;10.50;;
12302;SDS011;6214;48.012;7.862;2023-05-23T04:58:27;10.90;;;9.35;;
12302;SDS011;6214;48.012;7.862;2023-05-23T05:00:54;10.80;;;9.63;;
12302;SDS011;6214;48.012;7.862;2023-05-23T05:03:21;11.30;;;10.10;;
12302;SDS011;6214;48.012;7.862;2023-05-23T05:05:50;11.98;;;9.63;;
12302;SDS011;6214;48.012;7.862;2023-05-23T05:08:18;12.23;;;10.20;;
12302;SDS011;6214;48.012;7.862;2023-05-23T05:10:45;11.30;;;9.88;;
12302;SDS011;6214;48.012;7.862;2023-05-23T05:13:13;11.18;;;9.40;;
12302;SDS011;6214;48.012;7.862;2023-05-23T05:15:40;11.43;;;9.75;;
12302;SDS011;6214;48.012;7.862;2023-05-23T05:18:08;14.50;;;12.43;;
12302;SDS011;6214;48.012;7.862;2023-05-23T05:20:35;14.98;;;13.38;;
12302;SDS011;6214;48.012;7.862;2023-05-23T05:23:02;14.75;;;12.60;;
12302;SDS011;6214;48.012;7.862;2023-05-23T05:25:29;13.80;;;12.40;;
12302;SDS011;6214;48.012;7.862;2023-05-23T05:27:59;15.80;;;13.87;;
12302;SDS011;6214;48.012;7.862;2023-05-23T05:30:31;14.98;;;13.40;;
12302;SDS011;6214;48.012;7.862;2023-05-23T05:33:01;16.70;;;14.82;;
12302;SDS011;6214;48.012;7.862;2023-05-23T05:35:32;16.10;;;14.40;;
12302;SDS011;6214;48.012;7.862;2023-05-23T05:38:00;16.50;;;14.15;;
12302;SDS011;6214;48.012;7.862;2023-05-23T05:40:30;17.15;;;15.35;;
12302;SDS011;6214;48.012;7.862;2023-05-23T05:42:58;17.77;;;15.98;;
12302;SDS011;6214;48.012;7.862;2023-05-23T05:45:25;17.50;;;14.30;;
12302;SDS011;6214;48.012;7.862;2023-05-23T05:47:52;17.63;;;14.90;;
12302;SDS011;6214;48.012;7.862;2023-05-23T05:50:20;16.20;;;14.25;;
12302;SDS011;6214;48.012;7.862;2023-05-23T05:52:47;16.58;;;14.77;;
12302;SDS011;6214;48.012;7.862;2023-05-23T05:55:14;16.52;;;14.73;;
12302;SDS011;6214;48.012;7.862;2023-05-23T05:57:41;16.20;;;14.07;;
12302;SDS011;6214;48.012;7.862;2023-05-23T06:00:09;19.20;;;17.20;;
12302;SDS011;6214;48.012;7.862;2023-05-23T06:02:40;19.08;;;16.98;;
12302;SDS011;6214;48.012;7.862;2023-05-23T06:05:16;20.27;;;18.17;;
12302;SDS011;6214;48.012;7.862;2023-05-23T06:07:44;19.27;;;16.95;;
12302;SDS011;6214;48.012;7.862;2023-05-23T06:10:15;19.38;;;17.38;;
12302;SDS011;6214;48.012;7.862;2023-05-23T06:12:42;20.42;;;17.60;;
12302;SDS011;6214;48.012;7.862;2023-05-23T06:15:11;19.75;;;17.65;;
12302;SDS011;6214;48.012;7.862;2023-05-23T06:17:41;18.80;;;16.90;;
12302;SDS011;6214;48.012;7.862;2023-05-23T06:20:10;19.73;;;17.50;;
12302;SDS011;6214;48.012;7.862;2023-05-23T06:22:38;19.83;;;17.27;;
12302;SDS011;6214;48.012;7.862;2023-05-23T06:25:05;21.15;;;18.35;;
12302;SDS011;6214;48.012;7.862;2023-05-23T06:27:33;19.10;;;17.08;;
12302;SDS011;6214;48.012;7.862;2023-05-23T06:30:00;19.50;;;17.50;;
12302;SDS011;6214;48.012;7.862;2023-05-23T06:32:28;21.15;;;17.80;;
12302;SDS011;6214;48.012;7.862;2023-05-23T06:34:55;19.50;;;17.40;;
12302;SDS011;6214;48.012;7.862;2023-05-23T06:37:22;20.02;;;17.77;;
12302;SDS011;6214;48.012;7.862;2023-05-23T06:39:50;19.83;;;17.83;;
12302;SDS011;6214;48.012;7.862;2023-05-23T06:42:17;20.25;;;17.83;;
12302;SDS011;6214;48.012;7.862;2023-05-23T06:44:44;20.63;;;17.60;;
12302;SDS011;6214;48.012;7.862;2023-05-23T06:47:11;22.52;;;18.30;;
12302;SDS011;6214;48.012;7.862;2023-05-23T06:49:38;20.30;;;17.43;;
12302;SDS011;6214;48.012;7.862;2023-05-23T06:52:05;20.07;;;17.90;;
12302;SDS011;6214;48.012;7.862;2023-05-23T06:54:33;21.00;;;18.80;;
12302;SDS011;6214;48.012;7.862;2023-05-23T06:57:00;21.27;;;19.08;;
12302;SDS011;6214;48.012;7.862;2023-05-23T06:59:27;20.60;;;18.50;;
12302;SDS011;6214;48.012;7.862;2023-05-23T07:01:54;21.70;;;19.40;;
12302;SDS011;6214;48.012;7.862;2023-05-23T07:04:21;19.70;;;17.60;;
12302;SDS011;6214;48.012;7.862;2023-05-23T07:06:48;21.20;;;18.90;;
12302;SDS011;6214;48.012;7.862;2023-05-23T07:09:15;22.03;;;19.50;;
12302;SDS011;6214;48.012;7.862;2023-05-23T07:11:42;21.90;;;19.60;;
12302;SDS011;6214;48.012;7.862;2023-05-23T07:14:10;22.30;;;19.90;;
12302;SDS011;6214;48.012;7.862;2023-05-23T07:16:37;20.60;;;18.50;;
12302;SDS011;6214;48.012;7.862;2023-05-23T07:19:04;21.88;;;19.13;;
12302;SDS011;6214;48.012;7.862;2023-05-23T07:21:31;21.23;;;18.92;;
12302;SDS011;6214;48.012;7.862;2023-05-23T07:23:59;20.42;;;18.23;;
12302;SDS011;6214;48.012;7.862;2023-05-23T07:26:26;21.45;;;19.15;;
12302;SDS011;6214;48.012;7.862;2023-05-23T07:28:53;22.42;;;20.02;;
12302;SDS011;6214;48.012;7.862;2023-05-23T07:31:20;22.85;;;20.00;;
12302;SDS011;6214;48.012;7.862;2023-05-23T07:33:48;21.50;;;19.20;;
12302;SDS011;6214;48.012;7.862;2023-05-23T07:36:20;24.42;;;20.65;;
12302;SDS011;6214;48.012;7.862;2023-05-23T07:38:48;22.80;;;20.50;;
12302;SDS011;6214;48.012;7.862;2023-05-23T07:41:15;21.95;;;19.55;;
12302;SDS011;6214;48.012;7.862;2023-05-23T07:43:42;23.25;;;20.40;;
12302;SDS011;6214;48.012;7.862;2023-05-23T07:46:09;23.40;;;21.00;;
12302;SDS011;6214;48.012;7.862;2023-05-23T07:48:37;22.50;;;20.10;;
12302;SDS011;6214;48.012;7.862;2023-05-23T07:51:04;22.48;;;20.08;;
12302;SDS011;6214;48.012;7.862;2023-05-23T07:53:31;22.35;;;20.05;;
12302;SDS011;6214;48.012;7.862;2023-05-23T07:55:58;22.52;;;20.13;;
12302;SDS011;6214;48.012;7.862;2023-05-23T07:58:26;23.20;;;20.70;;
12302;SDS011;6214;48.012;7.862;2023-05-23T08:00:53;23.33;;;20.92;;
12302;SDS011;6214;48.012;7.862;2023-05-23T08:03:21;24.58;;;21.92;;
12302;SDS011;6214;48.012;7.862;2023-05-23T08:05:48;22.95;;;20.65;;
12302;SDS011;6214;48.012;7.862;2023-05-23T08:08:15;24.15;;;21.55;;
12302;SDS011;6214;48.012;7.862;2023-05-23T08:10:43;22.73;;;20.42;;
12302;SDS011;6214;48.012;7.862;2023-05-23T08:13:11;23.98;;;21.48;;
12302;SDS011;6214;48.012;7.862;2023-05-23T08:15:38;24.35;;;20.58;;
12302;SDS011;6214;48.012;7.862;2023-05-23T08:18:06;23.10;;;20.70;;
12302;SDS011;6214;48.012;7.862;2023-05-23T08:20:33;23.75;;;21.20;;
12302;SDS011;6214;48.012;7.862;2023-05-23T08:23:00;24.33;;;21.83;;
12302;SDS011;6214;48.012;7.862;2023-05-23T08:25:28;25.90;;;23.30;;
12302;SDS011;6214;48.012;7.862;2023-05-23T08:27:56;25.98;;;23.38;;
12302;SDS011;6214;48.012;7.862;2023-05-23T08:30:24;25.85;;;23.25;;
12302;SDS011;6214;48.012;7.862;2023-05-23T08:32:53;25.08;;;22.55;;
12302;SDS011;6214;48.012;7.862;2023-05-23T08:35:21;25.88;;;23.27;;
12302;SDS011;6214;48.012;7.862;2023-05-23T08:37:49;25.90;;;23.20;;
12302;SDS011;6214;48.012;7.862;2023-05-23T08:40:20;27.80;;;24.90;;
12302;SDS011;6214;48.012;7.862;2023-05-23T08:42:48;26.48;;;23.75;;
12302;SDS011;6214;48.012;7.862;2023-05-23T08:45:16;25.98;;;23.38;;
12302;SDS011;6214;48.012;7.862;2023-05-23T08:47:44;27.23;;;24.33;;
12302;SDS011;6214;48.012;7.862;2023-05-23T08:50:16;26.95;;;24.25;;
12302;SDS011;6214;48.012;7.862;2023-05-23T08:52:55;27.00;;;24.30;;
12302;SDS011;6214;48.012;7.862;2023-05-23T08:55:24;25.90;;;23.30;;
12302;SDS011;6214;48.012;7.862;2023-05-23T08:57:58;25.25;;;22.65;;
12302;SDS011;6214;48.012;7.862;2023-05-23T09:00:26;26.55;;;23.95;;
12302;SDS011;6214;48.012;7.862;2023-05-23T09:02:55;25.80;;;23.30;;
12302;SDS011;6214;48.012;7.862;2023-05-23T09:05:23;26.30;;;23.60;;
12302;SDS011;6214;48.012;7.862;2023-05-23T09:07:52;25.77;;;23.17;;
12302;SDS011;6214;48.012;7.862;2023-05-23T09:10:20;26.60;;;23.90;;
12302;SDS011;6214;48.012;7.862;2023-05-23T09:12:48;26.17;;;23.38;;
12302;SDS011;6214;48.012;7.862;2023-05-23T09:15:15;26.80;;;23.90;;
12302;SDS011;6214;48.012;7.862;2023-05-23T09:17:43;27.33;;;24.52;;
12302;SDS011;6214;48.012;7.862;2023-05-23T09:20:11;26.47;;;23.67;;
12302;SDS011;6214;48.012;7.862;2023-05-23T09:22:40;26.40;;;23.70;;
12302;SDS011;6214;48.012;7.862;2023-05-23T09:25:14;25.30;;;22.90;;
12302;SDS011;6214;48.012;7.862;2023-05-23T09:27:41;25.27;;;22.80;;
12302;SDS011;6214;48.012;7.862;2023-05-23T09:30:13;25.10;;;22.50;;
12302;SDS011;6214;48.012;7.862;2023-05-23T09:32:40;27.00;;;24.30;;
12302;SDS011;6214;48.012;7.862;2023-05-23T09:35:08;25.95;;;23.35;;
12302;SDS011;6214;48.012;7.862;2023-05-23T09:37:44;26.30;;;23.70;;
12302;SDS011;6214;48.012;7.862;2023-05-23T09:40:12;25.60;;;23.00;;
12302;SDS011;6214;48.012;7.862;2023-05-23T09:42:45;24.88;;;22.33;;
12302;SDS011;6214;48.012;7.862;2023-05-23T09:45:14;25.30;;;22.80;;
12302;SDS011;6214;48.012;7.862;2023-05-23T09:47:48;24.73;;;22.33;;
12302;SDS011;6214;48.012;7.862;2023-05-23T09:50:19;25.33;;;22.83;;
12302;SDS011;6214;48.012;7.862;2023-05-23T09:52:48;25.70;;;23.10;;
12302;SDS011;6214;48.012;7.862;2023-05-23T09:55:16;25.42;;;22.92;;
12302;SDS011;6214;48.012;7.862;2023-05-23T09:57:44;23.30;;;21.00;;
12302;SDS011;6214;48.012;7.862;2023-05-23T10:00:14;23.30;;;21.00;;
12302;SDS011;6214;48.012;7.862;2023-05-23T10:02:57;23.00;;;20.70;;
12302;SDS011;6214;48.012;7.862;2023-05-23T10:08:00;23.90;;;21.53;;
12302;SDS011;6214;48.012;7.862;2023-05-23T10:10:32;23.63;;;21.17;;
12302;SDS011;6214;48.012;7.862;2023-05-23T10:13:10;21.70;;;19.60;;
12302;SDS011;6214;48.012;7.862;2023-05-23T10:15:37;21.50;;;19.50;;
12302;SDS011;6214;48.012;7.862;2023-05-23T10:18:08;22.58;;;20.35;;
12302;SDS011;6214;48.012;7.862;2023-05-23T10:20:42;21.77;;;19.58;;
12302;SDS011;6214;48.012;7.862;2023-05-23T10:23:14;22.23;;;20.02;;
12302;SDS011;6214;48.012;7.862;2023-05-23T10:25:44;22.70;;;20.50;;
12302;SDS011;6214;48.012;7.862;2023-05-23T10:28:12;19.50;;;17.60;;
12302;SDS011;6214;48.012;7.862;2023-05-23T10:30:40;21.63;;;19.73;;
12302;SDS011;6214;48.012;7.862;2023-05-23T10:33:08;20.80;;;18.80;;
12302;SDS011;6214;48.012;7.862;2023-05-23T10:43:19;20.05;;;18.15;;
12302;SDS011;6214;48.012;7.862;2023-05-23T10:45:49;18.98;;;17.17;;
12302;SDS011;6214;48.012;7.862;2023-05-23T10:48:33;18.67;;;16.83;;
12302;SDS011;6214;48.012;7.862;2023-05-23T10:51:07;19.35;;;17.45;;
12302;SDS011;6214;48.012;7.862;2023-05-23T10:53:41;18.67;;;16.77;;
12302;SDS011;6214;48.012;7.862;2023-05-23T10:56:10;19.52;;;17.52;;
12302;SDS011;6214;48.012;7.862;2023-05-23T10:58:46;18.30;;;16.50;;
12302;SDS011;6214;48.012;7.862;2023-05-23T11:01:18;17.77;;;16.00;;
12302;SDS011;6214;48.012;7.862;2023-05-23T11:09:02;17.20;;;15.50;;
12302;SDS011;6214;48.012;7.862;2023-05-23T11:16:56;16.90;;;14.60;;
12302;SDS011;6214;48.012;7.862;2023-05-23T11:19:27;15.82;;;14.23;;
12302;SDS011;6214;48.012;7.862;2023-05-23T11:22:01;15.43;;;13.93;;
12302;SDS011;6214;48.012;7.862;2023-05-23T11:27:36;16.35;;;14.65;;
12302;SDS011;6214;48.012;7.862;2023-05-23T11:32:36;15.80;;;14.20;;
12302;SDS011;6214;48.012;7.862;2023-05-23T11:35:04;15.98;;;14.38;;
12302;SDS011;6214;48.012;7.862;2023-05-23T11:37:32;16.30;;;14.70;;
12302;SDS011;6214;48.012;7.862;2023-05-23T11:40:46;16.37;;;14.87;;
12302;SDS011;6214;48.012;7.862;2023-05-23T11:43:07;16.38;;;14.77;;
12302;SDS011;6214;48.012;7.862;2023-05-23T11:45:36;15.80;;;14.20;;
12302;SDS011;6214;48.012;7.862;2023-05-23T11:48:07;14.90;;;13.40;;
12302;SDS011;6214;48.012;7.862;2023-05-23T11:50:49;15.68;;;14.18;;
12302;SDS011;6214;48.012;7.862;2023-05-23T11:53:19;16.15;;;14.55;;
12302;SDS011;6214;48.012;7.862;2023-05-23T11:55:51;14.20;;;12.80;;
12302;SDS011;6214;48.012;7.862;2023-05-23T11:58:21;15.00;;;13.40;;
12302;SDS011;6214;48.012;7.862;2023-05-23T12:00:51;13.30;;;11.90;;
12302;SDS011;6214;48.012;7.862;2023-05-23T12:03:26;13.90;;;12.60;;
12302;SDS011;6214;48.012;7.862;2023-05-23T12:05:53;15.18;;;13.43;;
12302;SDS011;6214;48.012;7.862;2023-05-23T12:08:21;15.45;;;13.88;;
12302;SDS011;6214;48.012;7.862;2023-05-23T12:10:50;12.57;;;11.27;;
12302;SDS011;6214;48.012;7.862;2023-05-23T12:13:25;14.60;;;13.10;;
12302;SDS011;6214;48.012;7.862;2023-05-23T12:16:01;14.00;;;12.60;;
12302;SDS011;6214;48.012;7.862;2023-05-23T12:18:29;14.20;;;12.80;;
12302;SDS011;6214;48.012;7.862;2023-05-23T12:21:01;14.50;;;12.80;;
12302;SDS011;6214;48.012;7.862;2023-05-23T12:23:29;13.43;;;11.93;;
12302;SDS011;6214;48.012;7.862;2023-05-23T12:26:02;14.85;;;13.35;;
12302;SDS011;6214;48.012;7.862;2023-05-23T12:28:33;14.98;;;13.48;;
12302;SDS011;6214;48.012;7.862;2023-05-23T12:31:11;15.68;;;14.10;;
12302;SDS011;6214;48.012;7.862;2023-05-23T12:33:47;14.75;;;11.40;;
12302;SDS011;6214;48.012;7.862;2023-05-23T12:36:24;15.90;;;13.38;;
12302;SDS011;6214;48.012;7.862;2023-05-23T12:39:01;14.40;;;12.90;;
12302;SDS011;6214;48.012;7.862;2023-05-23T12:41:30;14.10;;;12.60;;
12302;SDS011;6214;48.012;7.862;2023-05-23T12:43:58;12.63;;;11.30;;
12302;SDS011;6214;48.012;7.862;2023-05-23T12:46:26;13.63;;;11.63;;
12302;SDS011;6214;48.012;7.862;2023-05-23T12:48:54;15.45;;;12.25;;
12302;SDS011;6214;48.012;7.862;2023-05-23T12:51:21;13.05;;;11.75;;
12302;SDS011;6214;48.012;7.862;2023-05-23T12:53:48;13.00;;;11.65;;
12302;SDS011;6214;48.012;7.862;2023-05-23T12:56:16;12.95;;;11.60;;
12302;SDS011;6214;48.012;7.862;2023-05-23T12:58:44;11.85;;;10.55;;
12302;SDS011;6214;48.012;7.862;2023-05-23T13:01:11;12.60;;;10.25;;
12302;SDS011;6214;48.012;7.862;2023-05-23T13:03:38;11.82;;;9.93;;
12302;SDS011;6214;48.012;7.862;2023-05-23T13:06:06;10.00;;;8.82;;
12302;SDS011;6214;48.012;7.862;2023-05-23T13:08:33;11.40;;;9.57;;
12302;SDS011;6214;48.012;7.862;2023-05-23T13:11:00;10.32;;;9.05;;
12302;SDS011;6214;48.012;7.862;2023-05-23T13:13:28;10.40;;;9.00;;
12302;SDS011;6214;48.012;7.862;2023-05-23T13:15:56;10.13;;;8.63;;
12302;SDS011;6214;48.012;7.862;2023-05-23T13:18:23;8.90;;;7.40;;
12302;SDS011;6214;48.012;7.862;2023-05-23T13:20:50;10.75;;;8.07;;
12302;SDS011;6214;48.012;7.862;2023-05-23T13:23:18;10.70;;;8.80;;
12302;SDS011;6214;48.012;7.862;2023-05-23T13:25:45;10.40;;;9.20;;
12302;SDS011;6214;48.012;7.862;2023-05-23T13:28:12;9.63;;;7.87;;
12302;SDS011;6214;48.012;7.862;2023-05-23T13:30:39;10.18;;;8.23;;
12302;SDS011;6214;48.012;7.862;2023-05-23T13:33:11;9.30;;;7.73;;
12302;SDS011;6214;48.012;7.862;2023-05-23T13:35:38;9.30;;;7.63;;
12302;SDS011;6214;48.012;7.862;2023-05-23T13:38:06;9.40;;;7.55;;
12302;SDS011;6214;48.012;7.862;2023-05-23T13:40:33;9.98;;;8.35;;
12302;SDS011;6214;48.012;7.862;2023-05-23T13:43:01;10.73;;;8.40;;
12302;SDS011;6214;48.012;7.862;2023-05-23T13:45:28;9.77;;;7.30;;
12302;SDS011;6214;48.012;7.862;2023-05-23T13:47:56;8.88;;;7.28;;
12302;SDS011;6214;48.012;7.862;2023-05-23T13:50:23;8.75;;;7.07;;
12302;SDS011;6214;48.012;7.862;2023-05-23T13:52:51;8.50;;;7.05;;
12302;SDS011;6214;48.012;7.862;2023-05-23T13:55:18;9.55;;;7.20;;
12302;SDS011;6214;48.012;7.862;2023-05-23T13:57:45;9.70;;;8.13;;
12302;SDS011;6214;48.012;7.862;2023-05-23T14:00:13;8.82;;;6.18;;
12302;SDS011;6214;48.012;7.862;2023-05-23T14:02:41;9.57;;;6.78;;
12302;SDS011;6214;48.012;7.862;2023-05-23T14:05:09;8.67;;;7.17;;
12302;SDS011;6214;48.012;7.862;2023-05-23T14:07:36;9.20;;;7.10;;
12302;SDS011;6214;48.012;7.862;2023-05-23T14:10:04;9.15;;;7.15;;
12302;SDS011;6214;48.012;7.862;2023-05-23T14:12:32;8.82;;;6.65;;
12302;SDS011;6214;48.012;7.862;2023-05-23T14:14:59;8.98;;;7.68;;
12302;SDS011;6214;48.012;7.862;2023-05-23T14:17:27;8.50;;;6.80;;
12302;SDS011;6214;48.012;7.862;2023-05-23T14:19:54;9.18;;;7.10;;
12302;SDS011;6214;48.012;7.862;2023-05-23T14:22:21;8.75;;;6.70;;
12302;SDS011;6214;48.012;7.862;2023-05-23T14:24:48;8.25;;;6.35;;
12302;SDS011;6214;48.012;7.862;2023-05-23T14:27:16;9.07;;;6.88;;
12302;SDS011;6214;48.012;7.862;2023-05-23T14:29:44;8.23;;;6.70;;
12302;SDS011;6214;48.012;7.862;2023-05-23T14:32:12;9.93;;;6.78;;
12302;SDS011;6214;48.012;7.862;2023-05-23T14:34:40;8.23;;;5.83;;
12302;SDS011;6214;48.012;7.862;2023-05-23T14:37:07;7.70;;;6.35;;
12302;SDS011;6214;48.012;7.862;2023-05-23T14:39:34;8.80;;;6.60;;
12302;SDS011;6214;48.012;7.862;2023-05-23T14:42:01;7.60;;;5.80;;
12302;SDS011;6214;48.012;7.862;2023-05-23T14:44:29;7.88;;;6.30;;
12302;SDS011;6214;48.012;7.862;2023-05-23T14:46:56;7.43;;;5.90;;
12302;SDS011;6214;48.012;7.862;2023-05-23T14:49:23;8.75;;;6.05;;
12302;SDS011;6214;48.012;7.862;2023-05-23T14:51:50;8.45;;;6.00;;
12302;SDS011;6214;48.012;7.862;2023-05-23T14:54:18;8.05;;;5.90;;
12302;SDS011;6214;48.012;7.862;2023-05-23T14:56:45;8.73;;;6.05;;
12302;SDS011;6214;48.012;7.862;2023-05-23T14:59:12;7.40;;;5.45;;
12302;SDS011;6214;48.012;7.862;2023-05-23T15:01:40;7.05;;;4.70;;
12302;SDS011;6214;48.012;7.862;2023-05-23T15:04:08;7.47;;;5.50;;
12302;SDS011;6214;48.012;7.862;2023-05-23T15:09:05;7.05;;;4.88;;
12302;SDS011;6214;48.012;7.862;2023-05-23T15:11:33;7.10;;;5.20;;
12302;SDS011;6214;48.012;7.862;2023-05-23T15:14:04;7.22;;;5.30;;
12302;SDS011;6214;48.012;7.862;2023-05-23T15:16:31;6.90;;;4.85;;
12302;SDS011;6214;48.012;7.862;2023-05-23T15:19:00;6.55;;;4.65;;
12302;SDS011;6214;48.012;7.862;2023-05-23T15:21:29;7.80;;;5.17;;
12302;SDS011;6214;48.012;7.862;2023-05-23T15:23:57;7.22;;;5.00;;
12302;SDS011;6214;48.012;7.862;2023-05-23T15:26:25;6.80;;;4.68;;
12302;SDS011;6214;48.012;7.862;2023-05-23T15:28:52;6.40;;;4.43;;
12302;SDS011;6214;48.012;7.862;2023-05-23T15:31:20;6.75;;;4.70;;